createdAt,value
2019-06-10T10:45:31.783Z,54.54
2019-06-10T10:48:04.059Z,55.00
2019-06-10T10:50:37.600Z,55.34
2019-06-10T10:53:08.897Z,53.78
2019-06-10T10:55:42.509Z,54.65
2019-06-10T10:58:14.217Z,55.39
2019-06-10T11:00:49.315Z,55.57
2019-06-10T11:03:19.606Z,56.11
2019-06-10T11:05:56.435Z,56.53
2019-06-10T11:08:25.977Z,56.56
2019-06-10T11:11:03.633Z,57.12
2019-06-10T11:13:35.998Z,56.97
2019-06-10T11:16:08.596Z,57.81
2019-06-10T11:18:42.313Z,58.22
2019-06-10T11:21:14.316Z,58.94
2019-06-10T11:23:46.255Z,59.34
2019-06-10T11:26:19.937Z,59.27
2019-06-10T11:28:54.382Z,59.59
2019-06-10T11:31:25.057Z,60.12
2019-06-10T11:33:58.991Z,60.62
2019-06-10T11:36:30.477Z,60.75
2019-06-10T11:39:03.081Z,60.67
2019-06-10T11:41:35.042Z,60.94
2019-06-10T11:44:06.662Z,61.19
2019-06-10T11:46:38.488Z,61.43
2019-06-10T11:49:12.687Z,61.57
2019-06-10T11:51:44.877Z,61.96
2019-06-10T11:54:17.226Z,62.22
2019-06-10T11:56:49.813Z,62.35
2019-06-10T11:59:22.000Z,63.27
2019-06-10T12:01:56.906Z,63.29
2019-06-10T12:04:29.037Z,64.22
2019-06-10T12:07:02.326Z,63.87
2019-06-10T12:09:35.517Z,64.02
2019-06-10T12:12:07.266Z,63.81
2019-06-10T12:14:39.456Z,62.61
2019-06-10T12:17:29.120Z,62.57
2019-06-10T12:19:44.701Z,62.18
2019-06-10T12:22:16.866Z,61.58
2019-06-10T12:24:50.322Z,61.29
2019-06-10T12:27:22.145Z,61.42
2019-06-10T12:29:56.288Z,61.47
2019-06-10T12:32:26.657Z,60.20
2019-06-10T12:34:59.655Z,58.68
2019-06-10T12:37:33.843Z,59.17
2019-06-10T12:40:07.543Z,57.86
2019-06-10T12:42:39.437Z,58.68
2019-06-10T12:45:12.876Z,58.78
2019-06-10T12:47:44.017Z,57.78
2019-06-10T12:50:18.097Z,58.28
2019-06-10T12:52:52.984Z,58.03
2019-06-10T12:55:37.945Z,57.17
2019-06-10T12:57:59.931Z,55.49
2019-06-10T13:00:33.878Z,55.54
2019-06-10T13:03:07.705Z,54.57
2019-06-10T13:05:42.499Z,54.79
2019-06-10T13:08:16.158Z,54.57
2019-06-10T13:10:49.037Z,53.57
2019-06-10T13:13:22.712Z,52.17
2019-06-10T13:15:56.204Z,52.12
2019-06-10T13:18:28.097Z,51.80
2019-06-10T13:21:02.518Z,52.29
2019-06-10T13:23:35.334Z,52.35
2019-06-10T13:26:10.813Z,51.30
2019-06-10T13:28:43.996Z,49.83
2019-06-10T13:31:15.057Z,50.59
2019-06-10T13:33:46.409Z,50.44
2019-06-10T13:36:18.256Z,49.93
2019-06-10T13:38:49.728Z,50.33
2019-06-10T13:41:22.750Z,49.99
2019-06-10T13:43:55.937Z,50.00
2019-06-10T13:46:28.718Z,49.45
2019-06-10T13:49:03.841Z,49.82
2019-06-10T13:51:35.629Z,49.53
2019-06-10T13:54:09.664Z,49.45
2019-06-10T13:56:47.038Z,48.72
2019-06-10T13:59:19.779Z,48.69
2019-06-10T14:01:53.150Z,48.31
2019-06-10T14:04:26.587Z,48.56
2019-06-10T14:06:58.477Z,47.78
2019-06-10T14:09:32.975Z,47.72
2019-06-10T14:12:05.946Z,47.41
2019-06-10T14:14:37.962Z,48.17
2019-06-10T14:17:09.689Z,46.99
2019-06-10T14:19:43.243Z,46.72
2019-06-10T14:22:16.009Z,47.33
2019-06-10T14:24:47.682Z,47.90
2019-06-10T14:27:21.713Z,48.70
2019-06-10T14:29:53.617Z,49.36
2019-06-10T14:32:25.039Z,50.11
2019-06-10T14:34:56.277Z,50.70
2019-06-10T14:37:38.058Z,51.44
2019-06-10T14:40:03.653Z,52.11
2019-06-10T14:42:33.925Z,52.29
2019-06-10T14:45:06.718Z,52.62
2019-06-10T14:47:37.677Z,52.53
2019-06-10T14:50:11.516Z,52.64
2019-06-10T14:52:43.145Z,52.91
2019-06-10T14:55:18.401Z,53.19
2019-06-10T14:57:48.564Z,53.12
2019-06-10T15:00:23.753Z,53.08
2019-06-10T15:02:55.597Z,53.60
2019-06-10T15:05:28.002Z,54.44
2019-06-10T15:07:59.180Z,54.70
2019-06-10T15:10:32.218Z,54.52
2019-06-10T15:13:06.058Z,55.52
2019-06-10T15:15:58.267Z,55.47
2019-06-10T15:18:29.137Z,55.68
2019-06-10T15:21:02.680Z,55.97
2019-06-10T15:23:34.184Z,56.22
2019-06-10T15:26:05.317Z,56.25
2019-06-10T15:28:36.818Z,56.43
2019-06-10T15:31:08.225Z,56.92
2019-06-10T15:33:39.470Z,56.41
2019-06-10T15:36:13.081Z,56.81
2019-06-10T15:38:47.097Z,57.07
2019-06-10T15:41:21.507Z,57.24
2019-06-10T15:43:53.200Z,56.96
2019-06-10T15:46:24.737Z,57.15
2019-06-10T15:48:55.957Z,57.05
2019-06-10T15:51:27.836Z,56.82
2019-06-10T15:53:59.337Z,57.03
2019-06-10T15:56:45.105Z,57.33
2019-06-10T15:59:05.877Z,57.17
2019-06-10T16:01:39.619Z,57.17
2019-06-10T16:04:14.420Z,56.99
2019-06-10T16:06:48.485Z,57.23
2019-06-10T16:09:23.475Z,57.45
2019-06-10T16:11:54.497Z,57.43
2019-06-10T16:14:28.560Z,57.61
2019-06-10T16:16:58.677Z,57.61
2019-06-10T16:19:53.006Z,57.24
2019-06-10T16:22:26.292Z,56.97
2019-06-10T16:24:58.446Z,56.80
2019-06-10T16:27:46.378Z,57.11
2019-06-10T16:30:03.243Z,57.24
2019-06-10T16:32:37.302Z,57.07
2019-06-10T16:35:08.707Z,56.93
2019-06-10T16:37:42.121Z,56.82
2019-06-10T16:40:13.604Z,56.90
2019-06-10T16:42:45.800Z,56.19
2019-06-10T16:45:26.615Z,56.64
2019-06-10T16:47:56.004Z,56.75
2019-06-10T16:50:58.381Z,57.05
2019-06-10T16:53:35.193Z,56.74
2019-06-10T16:56:08.446Z,56.66
2019-06-10T16:58:39.349Z,56.67
2019-06-10T17:01:12.365Z,56.36
2019-06-10T17:03:44.711Z,56.49
2019-06-10T17:06:17.458Z,56.16
2019-06-10T17:08:52.128Z,56.30
2019-06-10T17:11:24.166Z,56.24
2019-06-10T17:13:58.881Z,56.21
2019-06-10T17:16:31.039Z,55.83
2019-06-10T17:19:03.242Z,55.83
2019-06-10T17:21:35.036Z,55.80
2019-06-10T17:24:06.540Z,55.76
2019-06-10T17:26:42.625Z,55.60
2019-06-10T17:29:17.661Z,55.75
2019-06-10T17:31:49.042Z,55.42
2019-06-10T17:34:24.589Z,55.69
2019-06-10T17:36:58.381Z,55.75
2019-06-10T17:39:29.931Z,55.61
2019-06-10T17:42:03.442Z,55.34
2019-06-10T17:44:34.266Z,55.33
2019-06-10T17:47:06.865Z,55.49
2019-06-10T17:49:37.806Z,55.08
2019-06-10T17:52:09.481Z,54.96
2019-06-10T17:54:40.461Z,54.76
2019-06-10T17:57:12.796Z,55.13
2019-06-10T17:59:47.102Z,54.58
2019-06-10T18:02:19.190Z,54.89
2019-06-10T18:04:52.538Z,54.98
2019-06-10T18:07:25.586Z,54.95
2019-06-10T18:10:02.745Z,54.92
2019-06-10T18:12:35.792Z,54.49
2019-06-10T18:15:08.873Z,54.67
2019-06-10T18:17:42.548Z,54.89
2019-06-10T18:20:13.928Z,54.63
2019-06-10T18:22:45.502Z,54.62
2019-06-10T18:25:17.121Z,54.72
2019-06-10T18:27:52.211Z,54.96
2019-06-10T18:30:27.250Z,54.90
2019-06-10T18:32:59.621Z,54.98
2019-06-10T18:35:34.394Z,55.01
2019-06-10T18:38:06.761Z,55.12
2019-06-10T18:40:42.939Z,55.10
2019-06-10T18:43:18.303Z,54.95
2019-06-10T18:45:52.967Z,55.09
2019-06-10T18:48:37.882Z,55.18
2019-06-10T18:51:09.109Z,55.21
2019-06-10T18:53:42.589Z,55.24
2019-06-10T18:56:14.680Z,55.39
2019-06-10T18:58:53.018Z,55.37
2019-06-10T19:01:24.732Z,55.37
2019-06-10T19:03:55.184Z,55.56
2019-06-10T19:06:26.792Z,55.66
2019-06-10T19:08:59.280Z,56.06
2019-06-10T19:11:31.705Z,56.46
2019-06-10T19:14:04.275Z,56.56
2019-06-10T19:16:37.335Z,56.66
2019-06-10T19:19:12.527Z,56.83
2019-06-10T19:21:44.423Z,56.84
2019-06-10T19:24:15.705Z,57.00
2019-06-10T19:26:47.844Z,57.32
2019-06-10T19:29:32.705Z,57.36
2019-06-10T19:32:03.796Z,57.52
2019-06-10T19:34:35.641Z,57.69
2019-06-10T19:37:08.223Z,58.04
2019-06-10T19:39:46.157Z,58.52
2019-06-10T19:42:13.052Z,58.50
2019-06-10T19:44:46.049Z,58.90
2019-06-10T19:47:18.235Z,59.31
2019-06-10T19:49:52.194Z,59.26
2019-06-10T19:52:24.580Z,59.50
2019-06-10T19:54:58.453Z,59.78
2019-06-10T19:57:49.661Z,59.88
2019-06-10T20:00:22.253Z,60.11
2019-06-10T20:02:54.161Z,59.84
2019-06-10T20:05:26.335Z,59.97
2019-06-10T20:07:58.329Z,59.94
2019-06-10T20:10:32.456Z,59.94
2019-06-10T20:13:04.861Z,60.10
2019-06-10T20:15:37.404Z,60.36
2019-06-10T20:18:12.241Z,60.55
2019-06-10T20:20:47.060Z,60.65
2019-06-10T20:23:21.903Z,60.74
2019-06-10T20:25:58.461Z,60.79
2019-06-10T20:28:32.184Z,60.83
2019-06-10T20:31:04.180Z,60.79
2019-06-10T20:33:38.637Z,61.04
2019-06-10T20:36:20.892Z,61.44
2019-06-10T20:38:48.208Z,61.49
2019-06-10T20:41:16.698Z,61.58
2019-06-10T20:43:52.607Z,61.83
2019-06-10T20:46:23.670Z,62.00
2019-06-10T20:48:57.002Z,62.20
2019-06-10T20:51:28.870Z,62.36
2019-06-10T20:54:02.639Z,62.51
2019-06-10T20:56:35.402Z,62.58
2019-06-10T20:59:06.283Z,62.72
2019-06-10T21:01:38.775Z,62.88
2019-06-10T21:04:13.182Z,62.99
2019-06-10T21:06:47.459Z,63.07
2019-06-10T21:09:22.510Z,63.20
2019-06-10T21:11:54.453Z,63.47
2019-06-10T21:14:26.789Z,63.79
2019-06-10T21:17:00.123Z,64.01
2019-06-10T21:19:33.097Z,64.23
2019-06-10T21:22:03.209Z,64.40
2019-06-10T21:24:35.694Z,64.50
2019-06-10T21:27:06.801Z,64.50
2019-06-10T21:29:37.461Z,64.71
2019-06-10T21:32:07.741Z,64.94
2019-06-10T21:34:38.561Z,65.03
2019-06-10T21:37:08.749Z,65.26
2019-06-10T21:39:39.598Z,65.33
2019-06-10T21:42:12.861Z,65.37
2019-06-10T21:44:45.826Z,65.42
2019-06-10T21:47:17.208Z,65.54
2019-06-10T21:49:48.642Z,65.61
2019-06-10T21:52:19.515Z,65.70
2019-06-10T21:54:50.741Z,65.89
2019-06-10T21:57:22.281Z,65.86
2019-06-10T21:59:54.020Z,66.01
2019-06-10T22:02:27.260Z,66.08
2019-06-10T22:05:03.129Z,66.08
2019-06-10T22:07:34.420Z,66.18
2019-06-10T22:10:06.400Z,66.23
2019-06-10T22:12:36.781Z,66.25
2019-06-10T22:15:09.265Z,66.45
2019-06-10T22:17:42.678Z,66.52
2019-06-10T22:20:15.872Z,66.67
2019-06-10T22:22:48.554Z,66.87
2019-06-10T22:25:22.399Z,67.09
2019-06-10T22:27:54.222Z,67.39
2019-06-10T22:30:43.338Z,67.45
2019-06-10T22:33:15.774Z,67.75
2019-06-10T22:35:57.124Z,67.73
2019-06-10T22:38:28.117Z,67.82
2019-06-10T22:41:02.963Z,67.96
2019-06-10T22:43:33.875Z,68.00
2019-06-10T22:46:06.785Z,67.96
2019-06-10T22:48:38.897Z,68.03
2019-06-10T22:51:12.289Z,68.11
2019-06-10T22:53:44.617Z,68.33
2019-06-10T22:56:17.455Z,68.47
2019-06-10T22:58:49.762Z,68.49
2019-06-10T23:01:31.673Z,68.61
2019-06-10T23:03:56.372Z,68.62
2019-06-10T23:06:27.906Z,68.65
2019-06-10T23:09:02.613Z,68.90
2019-06-10T23:11:35.293Z,68.91
2019-06-10T23:14:08.549Z,68.86
2019-06-10T23:16:42.605Z,69.05
2019-06-10T23:19:16.686Z,69.17
2019-06-10T23:21:49.216Z,69.17
2019-06-10T23:24:22.835Z,69.13
2019-06-10T23:26:55.891Z,69.41
2019-06-10T23:29:27.661Z,69.48
2019-06-10T23:32:05.917Z,69.59
2019-06-10T23:34:33.553Z,69.66
2019-06-10T23:37:07.256Z,69.71
2019-06-10T23:39:38.906Z,69.73
2019-06-10T23:42:13.606Z,69.90
2019-06-10T23:44:45.632Z,70.03
2019-06-10T23:47:18.640Z,70.00
2019-06-10T23:49:51.635Z,70.31
2019-06-10T23:52:24.615Z,70.24
2019-06-10T23:54:57.946Z,70.27
2019-06-10T23:57:30.285Z,70.27
